Seneca, California
Current Conditions -  °F | °C
As of 8:53 AM on Sunday 21 Dec 2014 (Local Time) from KOVE Reporting Station
Haze Haze  
Wind Chill: 57°   Ceiling: 2400
Heat Index: 57°   Visibility: 6mi
Dew Point: 53°   Wind: 9mph
Humidity: 87%   Direction: 160°SSE
Pressure: 30.28"   Gusts: NA
Location:  40.2035°N, 121.147°W
Report Text: KOVE 211653Z AUTO 16008KT 6SM BR FEW016 OVC024 14/12 A3028 RMK AO2 SLP256 T01390117
Loading
Personal Weather Stations






























Interactive Weather Map New forecast layout! Learn more

10-Day Weather Forecast

Advertisements
Track Severe Weather on mobile